createdAt,value
2018-04-15T00:00:07.855Z,83.49
2018-04-15T00:02:35.876Z,84.18
2018-04-15T00:05:07.707Z,83.91
2018-04-15T00:07:36.036Z,83.27
2018-04-15T00:10:07.391Z,83.98
2018-04-15T00:12:35.647Z,84.26
2018-04-15T00:15:06.311Z,84.67
2018-04-15T00:17:34.364Z,85.68
2018-04-15T00:20:08.156Z,86.89
2018-04-15T00:22:36.150Z,87.81
2018-04-15T00:25:07.834Z,88.24
2018-04-15T00:27:39.751Z,88.66
2018-04-15T00:30:07.797Z,88.56
2018-04-15T00:32:35.834Z,88.62
2018-04-15T00:35:07.559Z,88.11
2018-04-15T00:37:35.596Z,87.86
2018-04-15T00:40:07.278Z,88.14
2018-04-15T00:42:35.460Z,88.03
2018-04-15T00:45:06.501Z,87.72
2018-04-15T00:47:34.533Z,88.10
2018-04-15T00:50:05.736Z,88.25
2018-04-15T00:52:34.170Z,88.33
2018-04-15T00:55:08.544Z,88.78
2018-04-15T00:57:36.991Z,89.01
2018-04-15T01:00:08.036Z,89.74
2018-04-15T01:02:36.275Z,89.88
2018-04-15T01:05:07.452Z,89.67
2018-04-15T01:07:35.491Z,89.90
2018-04-15T01:10:06.447Z,89.89
2018-04-15T01:12:34.773Z,89.37
2018-04-15T01:15:06.667Z,89.24
2018-04-15T01:17:35.506Z,89.75
2018-04-15T01:20:06.468Z,90.17
2018-04-15T01:22:34.596Z,90.53
2018-04-15T01:25:05.732Z,90.49
2018-04-15T01:27:33.748Z,90.41
2018-04-15T01:32:34.935Z,90.06
2018-04-15T01:35:10.305Z,90.36
2018-04-15T01:37:38.302Z,90.53
2018-04-15T01:40:06.374Z,90.82
2018-04-15T01:42:34.420Z,91.09
2018-04-15T01:45:06.431Z,91.15
2018-04-15T01:47:34.473Z,91.61
2018-04-15T01:50:05.623Z,91.98
2018-04-15T01:52:33.649Z,91.84
2018-04-15T01:55:04.739Z,90.84
2018-04-15T01:57:33.032Z,90.74
2018-04-15T02:00:02.582Z,90.84
2018-04-15T02:02:33.203Z,91.12
2018-04-15T02:05:04.995Z,91.29
2018-04-15T02:07:33.047Z,91.13
2018-04-15T02:10:02.808Z,91.34
2018-04-15T02:12:32.173Z,91.56
2018-04-15T02:15:00.203Z,91.20
2018-04-15T02:17:28.218Z,91.25
2018-04-15T02:19:56.246Z,91.21
2018-04-15T02:22:24.276Z,91.16
2018-04-15T02:24:52.327Z,91.38
2018-04-15T02:27:20.534Z,91.99
2018-04-15T02:29:49.036Z,92.08
2018-04-15T02:32:17.006Z,92.14
2018-04-15T02:34:45.063Z,92.04
2018-04-15T02:37:13.079Z,92.10
2018-04-15T02:39:41.130Z,91.84
2018-04-15T02:42:09.166Z,91.86
2018-04-15T02:44:37.217Z,92.43
2018-04-15T02:47:05.239Z,92.08
2018-04-15T02:49:33.278Z,92.08
2018-04-15T02:52:01.319Z,92.62
2018-04-15T02:54:29.368Z,92.56
2018-04-15T02:56:57.371Z,92.02
2018-04-15T02:59:25.579Z,91.83
2018-04-15T03:01:53.890Z,91.27
2018-04-15T03:04:21.899Z,91.10
2018-04-15T03:06:50.293Z,91.19
2018-04-15T03:09:18.317Z,91.41
2018-04-15T03:11:46.335Z,91.83
2018-04-15T03:14:14.354Z,92.54
2018-04-15T03:16:42.411Z,93.18
2018-04-15T03:19:10.419Z,93.49
2018-04-15T03:21:38.686Z,94.11
2018-04-15T03:24:06.889Z,94.09
2018-04-15T03:26:34.935Z,93.95
2018-04-15T03:29:02.967Z,93.36
2018-04-15T03:31:31.340Z,92.60
2018-04-15T03:33:59.373Z,93.18
2018-04-15T03:36:27.398Z,93.72
2018-04-15T03:38:55.398Z,93.91
2018-04-15T03:41:23.473Z,93.85
2018-04-15T03:43:51.538Z,93.88
2018-04-15T03:46:20.014Z,93.54
2018-04-15T03:48:48.251Z,92.82
2018-04-15T03:51:16.263Z,92.42
2018-04-15T03:53:44.297Z,91.78
2018-04-15T03:56:12.310Z,92.01
2018-04-15T03:58:40.403Z,92.09
2018-04-15T04:01:08.651Z,91.96
2018-04-15T04:03:36.697Z,92.28
2018-04-15T04:06:05.051Z,91.85
2018-04-15T04:08:33.078Z,92.10
2018-04-15T04:11:01.100Z,93.61
2018-04-15T04:13:29.396Z,93.85
2018-04-15T04:15:58.055Z,93.39
2018-04-15T04:18:38.566Z,92.78
2018-04-15T04:21:18.407Z,92.50
2018-04-15T04:23:58.452Z,92.81
2018-04-15T04:26:26.483Z,93.52
2018-04-15T04:28:55.431Z,93.72
2018-04-15T04:31:23.491Z,93.58
2018-04-15T04:33:51.508Z,93.27
2018-04-15T04:36:19.724Z,93.83
2018-04-15T04:38:47.830Z,93.87
2018-04-15T04:41:15.863Z,94.08
2018-04-15T04:43:43.922Z,93.10
2018-04-15T04:46:11.959Z,92.70
2018-04-15T04:48:40.103Z,92.86
2018-04-15T04:51:08.135Z,93.53
2018-04-15T04:53:36.273Z,93.66
2018-04-15T04:56:04.298Z,93.88
2018-04-15T04:58:32.353Z,93.67
2018-04-15T05:01:00.430Z,92.30
2018-04-15T05:03:32.611Z,92.39
2018-04-15T05:06:00.643Z,93.12
2018-04-15T05:08:29.316Z,93.79
2018-04-15T05:10:57.897Z,93.85
2018-04-15T05:13:25.913Z,93.70
2018-04-15T05:15:53.950Z,92.92
2018-04-15T05:18:22.151Z,92.28
2018-04-15T05:20:50.197Z,92.29
2018-04-15T05:23:18.203Z,92.81
2018-04-15T05:25:46.241Z,93.43
2018-04-15T05:28:14.338Z,93.79
2018-04-15T05:30:42.355Z,93.94
2018-04-15T05:33:10.386Z,94.03
2018-04-15T05:35:38.587Z,93.36
2018-04-15T05:38:06.624Z,92.35
2018-04-15T05:40:34.899Z,92.01
2018-04-15T05:43:02.939Z,92.05
2018-04-15T05:45:31.000Z,91.33
2018-04-15T05:47:59.124Z,92.12
2018-04-15T05:50:27.122Z,91.72
2018-04-15T05:52:55.175Z,92.10
2018-04-15T05:55:23.192Z,92.44
2018-04-15T05:57:52.511Z,92.59
2018-04-15T06:00:20.578Z,91.95
2018-04-15T06:02:48.793Z,92.50
2018-04-15T06:05:16.847Z,92.62
2018-04-15T06:07:45.065Z,92.78
2018-04-15T06:10:13.073Z,91.56
2018-04-15T06:12:41.099Z,92.04
2018-04-15T06:15:09.113Z,92.34
2018-04-15T06:17:37.124Z,92.41
2018-04-15T06:20:05.636Z,91.52
2018-04-15T06:22:33.663Z,91.07
2018-04-15T06:25:06.158Z,91.01
2018-04-15T06:27:34.194Z,91.42
2018-04-15T06:30:05.462Z,91.27
2018-04-15T06:32:33.473Z,91.10
2018-04-15T06:35:07.843Z,92.21
2018-04-15T06:37:35.879Z,92.75
2018-04-15T06:40:08.984Z,91.37
2018-04-15T06:42:37.033Z,92.62
2018-04-15T06:45:06.042Z,91.54
2018-04-15T06:47:34.112Z,92.60
2018-04-15T06:50:05.306Z,92.13
2018-04-15T06:52:33.311Z,92.25
2018-04-15T06:55:07.835Z,92.05
2018-04-15T06:57:35.848Z,89.94
2018-04-15T07:00:06.831Z,89.31
2018-04-15T07:02:34.847Z,89.73
2018-04-15T07:05:05.690Z,89.80
2018-04-15T07:07:33.687Z,88.97
2018-04-15T07:10:05.986Z,88.81
2018-04-15T07:12:33.957Z,88.56
2018-04-15T07:15:08.782Z,87.99
2018-04-15T07:17:41.252Z,87.79
2018-04-15T07:20:09.391Z,86.99
2018-04-15T07:22:37.725Z,84.60
2018-04-15T07:25:05.701Z,85.14
2018-04-15T07:27:33.701Z,83.25
2018-04-15T07:30:05.866Z,83.74
2018-04-15T07:32:33.885Z,84.60
2018-04-15T07:35:06.518Z,82.57
2018-04-15T07:37:34.591Z,85.11
2018-04-15T07:40:06.441Z,84.37
2018-04-15T07:42:35.109Z,86.32
2018-04-15T07:45:05.664Z,86.28
2018-04-15T07:47:33.707Z,85.28
2018-04-15T07:50:08.178Z,83.38
2018-04-15T07:52:36.186Z,80.12
2018-04-15T07:55:07.168Z,76.05
2018-04-15T07:57:35.248Z,77.28
2018-04-15T08:00:06.940Z,75.30
2018-04-15T08:02:35.695Z,73.54
2018-04-15T08:05:07.549Z,72.87
2018-04-15T08:07:35.765Z,78.56
2018-04-15T08:10:07.264Z,73.88
2018-04-15T08:12:35.300Z,78.21
2018-04-15T08:15:06.755Z,74.74
2018-04-15T08:17:34.764Z,74.96
2018-04-15T08:20:05.864Z,77.45
2018-04-15T08:22:33.899Z,76.72
2018-04-15T08:25:06.724Z,77.26
2018-04-15T08:27:34.764Z,75.55
2018-04-15T08:30:06.044Z,74.00
2018-04-15T08:32:34.591Z,73.47
2018-04-15T08:35:06.900Z,71.96
2018-04-15T08:37:35.460Z,72.42
2018-04-15T08:40:07.220Z,70.18
2018-04-15T08:42:35.256Z,69.02
2018-04-15T08:45:05.754Z,70.54
2018-04-15T08:47:33.885Z,69.07
2018-04-15T08:50:09.174Z,67.13
2018-04-15T08:52:37.170Z,61.27
2018-04-15T08:55:06.114Z,67.91
2018-04-15T08:57:34.292Z,63.04
2018-04-15T09:00:06.191Z,66.87
2018-04-15T09:02:34.193Z,59.64
2018-04-15T09:05:05.638Z,60.44
2018-04-15T09:07:33.636Z,60.87
2018-04-15T09:10:08.077Z,66.53
2018-04-15T09:12:36.084Z,70.06
2018-04-15T09:15:05.838Z,72.55
2018-04-15T09:17:33.843Z,70.64
2018-04-15T09:20:06.021Z,69.99
2018-04-15T09:22:34.038Z,68.46
2018-04-15T09:25:05.601Z,67.18
2018-04-15T09:27:33.763Z,66.40
2018-04-15T09:30:08.302Z,66.29
2018-04-15T09:32:36.380Z,64.59
2018-04-15T09:35:07.613Z,66.29
2018-04-15T09:37:35.655Z,65.66
2018-04-15T09:40:06.943Z,63.53
2018-04-15T09:42:34.973Z,62.01
2018-04-15T09:45:05.879Z,61.09
2018-04-15T09:47:35.221Z,61.41
2018-04-15T09:50:06.665Z,59.78
2018-04-15T09:52:34.644Z,61.94
2018-04-15T09:55:05.997Z,62.33
2018-04-15T09:57:34.008Z,61.69
2018-04-15T10:00:08.930Z,62.60
2018-04-15T10:02:36.975Z,62.60
2018-04-15T10:05:06.265Z,61.09
2018-04-15T10:07:34.259Z,61.36
2018-04-15T10:10:06.699Z,61.75
2018-04-15T10:12:34.732Z,58.84
2018-04-15T10:15:06.624Z,57.67
2018-04-15T10:17:34.658Z,56.41
2018-04-15T10:20:05.894Z,50.27
2018-04-15T10:22:33.916Z,47.75
2018-04-15T10:25:05.776Z,56.92
2018-04-15T10:27:33.813Z,55.91
2018-04-15T10:30:11.634Z,57.42
2018-04-15T10:32:39.723Z,57.59
2018-04-15T10:35:07.716Z,56.82
2018-04-15T10:37:35.711Z,55.56
2018-04-15T10:40:07.326Z,58.66
2018-04-15T10:42:36.845Z,56.44
2018-04-15T10:45:06.316Z,55.47
2018-04-15T10:47:34.323Z,55.34
2018-04-15T10:50:05.921Z,56.45
2018-04-15T10:52:33.910Z,55.88
2018-04-15T10:55:06.383Z,60.12
2018-04-15T10:57:34.624Z,61.75
2018-04-15T11:00:05.706Z,60.40
2018-04-15T11:02:33.802Z,59.14
2018-04-15T11:05:08.373Z,61.60
2018-04-15T11:07:36.351Z,62.89
2018-04-15T11:10:06.199Z,55.98
2018-04-15T11:12:34.270Z,55.87
2018-04-15T11:15:09.073Z,53.30
2018-04-15T11:17:37.152Z,53.25
2018-04-15T11:20:06.251Z,51.60
2018-04-15T11:22:34.356Z,56.40
2018-04-15T11:25:09.189Z,52.85
2018-04-15T11:27:37.240Z,50.85
2018-04-15T11:30:06.095Z,47.25
2018-04-15T11:32:34.157Z,48.88
2018-04-15T11:35:08.991Z,49.26
2018-04-15T11:37:37.009Z,50.11
2018-04-15T11:40:06.370Z,53.02
2018-04-15T11:42:34.475Z,52.39
2018-04-15T11:45:07.612Z,52.96
2018-04-15T11:47:35.635Z,54.46
2018-04-15T11:50:07.325Z,52.64
2018-04-15T11:52:35.744Z,52.27
2018-04-15T11:55:07.623Z,54.02
2018-04-15T11:57:35.655Z,54.96
2018-04-15T12:00:07.532Z,55.54
2018-04-15T12:02:35.552Z,53.92
2018-04-15T12:05:07.090Z,53.31
2018-04-15T12:07:39.454Z,52.38
2018-04-15T12:10:07.512Z,52.37
2018-04-15T12:12:35.565Z,52.05
2018-04-15T12:15:06.628Z,52.03
2018-04-15T12:17:34.848Z,52.98
2018-04-15T12:20:05.960Z,51.67
2018-04-15T12:22:34.199Z,50.33
2018-04-15T12:25:06.828Z,53.43
2018-04-15T12:27:34.818Z,55.08
2018-04-15T12:30:06.687Z,54.55
2018-04-15T12:32:34.747Z,55.16
2018-04-15T12:35:06.282Z,55.94
2018-04-15T12:37:34.875Z,56.34
2018-04-15T12:40:06.033Z,54.81
2018-04-15T12:42:34.516Z,53.20
2018-04-15T12:45:05.855Z,52.08
2018-04-15T12:47:34.114Z,55.42
2018-04-15T12:50:05.404Z,54.58
2018-04-15T12:52:33.447Z,52.61
2018-04-15T12:57:35.313Z,53.43
2018-04-15T13:00:06.243Z,56.79
2018-04-15T13:02:34.284Z,56.21
2018-04-15T13:05:08.934Z,57.89
2018-04-15T13:07:36.947Z,57.18
2018-04-15T13:10:06.010Z,52.28
2018-04-15T13:12:34.043Z,52.82
2018-04-15T13:15:08.471Z,56.00
2018-04-15T13:17:36.520Z,56.04
2018-04-15T13:20:05.975Z,55.95
2018-04-15T13:22:34.624Z,55.82
2018-04-15T13:25:06.202Z,53.68
2018-04-15T13:27:34.238Z,53.11
2018-04-15T13:30:05.585Z,53.70
2018-04-15T13:32:33.659Z,55.66
2018-04-15T13:35:06.093Z,55.11
2018-04-15T13:37:34.146Z,54.14
2018-04-15T13:40:05.706Z,54.69
2018-04-15T13:42:33.732Z,53.85
2018-04-15T13:45:04.830Z,53.68
2018-04-15T13:47:32.858Z,55.40
2018-04-15T13:50:03.909Z,53.17
2018-04-15T13:52:32.464Z,55.65
2018-04-15T13:55:00.477Z,57.00
2018-04-15T13:57:31.567Z,55.74
2018-04-15T13:59:59.644Z,56.58
2018-04-15T14:02:27.668Z,53.47
2018-04-15T14:04:55.720Z,51.16
2018-04-15T14:07:24.661Z,53.36
2018-04-15T14:09:52.675Z,55.35
2018-04-15T14:12:20.693Z,53.86
2018-04-15T14:14:49.088Z,53.38
2018-04-15T14:17:17.735Z,50.90
2018-04-15T14:19:45.783Z,49.92
2018-04-15T14:22:13.793Z,49.17
2018-04-15T14:24:41.853Z,49.28
2018-04-15T14:27:10.417Z,49.18
2018-04-15T14:29:38.463Z,47.94
2018-04-15T14:34:40.713Z,47.75
2018-04-15T14:37:08.700Z,48.64
2018-04-15T14:39:37.348Z,49.12
2018-04-15T14:42:05.421Z,48.79
2018-04-15T14:44:33.428Z,47.58
2018-04-15T14:47:01.457Z,47.98
2018-04-15T14:49:29.472Z,47.29
2018-04-15T14:51:57.593Z,47.15
2018-04-15T14:54:25.635Z,47.67
2018-04-15T14:56:53.643Z,47.22
2018-04-15T14:59:21.657Z,47.09
2018-04-15T15:01:49.981Z,47.26
2018-04-15T15:04:18.191Z,47.36
2018-04-15T15:06:46.261Z,47.80
2018-04-15T15:09:14.248Z,47.91
2018-04-15T15:11:43.065Z,47.01
2018-04-15T15:14:11.085Z,47.25
2018-04-15T15:16:39.107Z,47.32
2018-04-15T15:19:07.243Z,47.09
2018-04-15T15:21:35.274Z,47.34
2018-04-15T15:24:03.294Z,48.19
2018-04-15T15:26:31.340Z,48.22
2018-04-15T15:28:59.370Z,48.04
2018-04-15T15:31:27.391Z,47.38
2018-04-15T15:33:55.667Z,47.45
2018-04-15T15:36:23.684Z,47.66
2018-04-15T15:38:51.822Z,47.39
2018-04-15T15:41:19.814Z,45.80
2018-04-15T15:43:47.841Z,46.04
2018-04-15T15:46:15.863Z,46.29
2018-04-15T15:48:43.953Z,47.85
2018-04-15T15:51:11.942Z,48.05
2018-04-15T15:53:39.972Z,47.89
2018-04-15T15:56:07.979Z,46.56
2018-04-15T15:58:36.345Z,47.03
2018-04-15T16:01:04.351Z,46.73
2018-04-15T16:03:32.474Z,46.71
2018-04-15T16:06:00.536Z,47.37
2018-04-15T16:08:28.573Z,48.84
2018-04-15T16:10:56.573Z,47.14
2018-04-15T16:13:24.596Z,48.28
2018-04-15T16:15:52.623Z,47.64
2018-04-15T16:18:20.631Z,47.44
2018-04-15T16:20:48.692Z,48.74
2018-04-15T16:23:16.709Z,49.44
2018-04-15T16:25:45.296Z,49.82
2018-04-15T16:28:13.330Z,48.28
2018-04-15T16:30:41.700Z,49.69
2018-04-15T16:33:09.701Z,48.47
2018-04-15T16:35:38.458Z,49.56
2018-04-15T16:38:06.532Z,51.07
2018-04-15T16:40:34.541Z,49.34
2018-04-15T16:43:02.566Z,49.75
2018-04-15T16:45:30.621Z,49.57
2018-04-15T16:47:58.685Z,50.95
2018-04-15T16:50:26.677Z,50.35
2018-04-15T16:52:55.030Z,50.47
2018-04-15T16:55:23.047Z,50.87
2018-04-15T16:57:51.101Z,51.59
2018-04-15T17:00:19.118Z,51.18
2018-04-15T17:02:47.154Z,51.17
2018-04-15T17:05:15.163Z,52.33
2018-04-15T17:07:43.183Z,51.00
2018-04-15T17:10:11.197Z,51.65
2018-04-15T17:12:39.260Z,51.62
2018-04-15T17:15:07.258Z,53.06
2018-04-15T17:17:35.308Z,53.15
2018-04-15T17:20:07.484Z,54.26
2018-04-15T17:22:35.579Z,53.64
2018-04-15T17:25:07.388Z,54.41
2018-04-15T17:27:35.376Z,55.02
2018-04-15T17:30:06.907Z,56.25
2018-04-15T17:32:34.935Z,57.08
2018-04-15T17:35:06.413Z,57.86
2018-04-15T17:37:34.445Z,58.84
2018-04-15T17:40:10.097Z,60.58
2018-04-15T17:42:38.150Z,59.87
2018-04-15T17:45:06.923Z,59.79
2018-04-15T17:47:34.927Z,60.20
2018-04-15T17:50:07.065Z,58.61
2018-04-15T17:52:35.091Z,60.19
2018-04-15T17:55:06.482Z,59.42
2018-04-15T17:57:34.481Z,59.19
2018-04-15T18:00:09.156Z,60.25
2018-04-15T18:02:37.209Z,60.88
2018-04-15T18:05:06.487Z,60.91
2018-04-15T18:07:34.499Z,61.32
2018-04-15T18:10:08.773Z,60.83
2018-04-15T18:12:36.786Z,61.27
2018-04-15T18:15:08.067Z,61.17
2018-04-15T18:17:36.108Z,61.41
2018-04-15T18:20:07.783Z,61.45
2018-04-15T18:22:35.930Z,61.74
2018-04-15T18:25:07.505Z,62.83
2018-04-15T18:27:35.552Z,63.42
2018-04-15T18:30:11.436Z,63.56
2018-04-15T18:32:39.473Z,63.87
2018-04-15T18:35:07.572Z,64.84
2018-04-15T18:37:35.597Z,66.13
2018-04-15T18:40:06.905Z,65.59
2018-04-15T18:42:34.953Z,67.00
2018-04-15T18:45:06.505Z,67.85
2018-04-15T18:52:34.264Z,69.49
2018-04-15T18:55:08.729Z,70.12
2018-04-15T18:57:36.778Z,70.10
2018-04-15T19:00:06.401Z,69.89
2018-04-15T19:02:34.809Z,69.74
2018-04-15T19:05:06.648Z,70.97
2018-04-15T19:07:34.666Z,71.77
2018-04-15T19:10:05.764Z,71.19
2018-04-15T19:12:33.843Z,71.44
2018-04-15T19:15:05.505Z,71.23
2018-04-15T19:17:33.556Z,71.93
2018-04-15T19:20:04.710Z,71.53
2018-04-15T19:22:32.747Z,71.56
2018-04-15T19:25:00.795Z,71.51
2018-04-15T19:27:34.440Z,72.47
2018-04-15T19:30:06.207Z,72.95
2018-04-15T19:32:34.276Z,73.39
2018-04-15T19:35:08.805Z,73.29
2018-04-15T19:37:36.917Z,73.65
2018-04-15T19:40:06.682Z,73.84
2018-04-15T19:42:34.855Z,73.58
2018-04-15T19:45:06.684Z,73.17
2018-04-15T19:47:34.746Z,73.70
2018-04-15T19:50:05.997Z,73.88
2018-04-15T19:52:34.032Z,74.76
2018-04-15T19:55:05.258Z,75.21
2018-04-15T19:57:33.258Z,74.72
2018-04-15T20:00:06.148Z,76.10
2018-04-15T20:02:34.150Z,76.31
2018-04-15T20:05:05.115Z,75.65
2018-04-15T20:07:33.123Z,75.50
2018-04-15T20:10:02.588Z,74.11
2018-04-15T20:12:32.213Z,75.16
2018-04-15T20:15:00.234Z,75.79
2018-04-15T20:17:28.272Z,75.91
2018-04-15T20:19:56.256Z,75.91
2018-04-15T20:22:24.576Z,77.07
2018-04-15T20:24:52.570Z,77.02
2018-04-15T20:27:20.670Z,76.00
2018-04-15T20:29:48.723Z,77.76
2018-04-15T20:32:16.757Z,76.84
2018-04-15T20:34:44.852Z,77.09
2018-04-15T20:37:12.932Z,76.56
2018-04-15T20:39:40.953Z,76.69
2018-04-15T20:42:09.020Z,77.92
2018-04-15T20:44:37.074Z,78.31
2018-04-15T20:47:05.067Z,77.79
2018-04-15T20:49:33.306Z,77.54
2018-04-15T20:52:01.355Z,77.04
2018-04-15T20:54:29.398Z,76.69
2018-04-15T20:56:57.427Z,75.81
2018-04-15T20:59:25.450Z,73.32
2018-04-15T21:01:53.482Z,74.96
2018-04-15T21:04:21.513Z,76.84
2018-04-15T21:06:49.522Z,74.70
2018-04-15T21:09:17.739Z,77.06
2018-04-15T21:11:45.740Z,77.09
2018-04-15T21:14:13.791Z,77.27
2018-04-15T21:16:42.163Z,77.93
2018-04-15T21:19:10.259Z,78.24
2018-04-15T21:21:38.292Z,78.03
2018-04-15T21:24:06.867Z,78.71
2018-04-15T21:26:34.896Z,78.17
2018-04-15T21:29:02.941Z,78.89
2018-04-15T21:31:30.974Z,78.60
2018-04-15T21:33:58.968Z,78.76
2018-04-15T21:36:26.988Z,78.86
2018-04-15T21:38:54.999Z,79.33
2018-04-15T21:41:23.039Z,79.07
2018-04-15T21:43:51.058Z,79.56
2018-04-15T21:46:20.022Z,79.98
2018-04-15T21:48:48.060Z,80.30
2018-04-15T21:51:16.077Z,80.29
2018-04-15T21:53:44.114Z,80.26
2018-04-15T21:56:12.157Z,80.25
2018-04-15T21:58:40.164Z,79.91
2018-04-15T22:01:08.195Z,80.18
2018-04-15T22:03:36.308Z,80.70
2018-04-15T22:06:04.294Z,79.91
2018-04-15T22:08:32.310Z,80.90
2018-04-15T22:11:00.664Z,80.81
2018-04-15T22:13:28.806Z,81.25
2018-04-15T22:15:56.827Z,81.43
2018-04-15T22:18:24.880Z,80.98
2018-04-15T22:20:52.889Z,81.25
2018-04-15T22:23:21.248Z,80.73
2018-04-15T22:25:49.304Z,80.51
2018-04-15T22:28:17.304Z,80.75
2018-04-15T22:30:45.341Z,80.96
2018-04-15T22:33:13.359Z,81.33
2018-04-15T22:35:41.379Z,81.10
2018-04-15T22:38:09.571Z,80.32
2018-04-15T22:40:37.842Z,80.34
2018-04-15T22:43:05.886Z,81.33
2018-04-15T22:45:33.918Z,81.38
2018-04-15T22:48:05.112Z,82.00
2018-04-15T22:50:36.966Z,81.71
2018-04-15T22:53:05.009Z,82.00
2018-04-15T22:55:33.004Z,82.16
2018-04-15T22:58:01.209Z,82.35
2018-04-15T23:00:29.240Z,82.04
2018-04-15T23:02:57.224Z,82.37
2018-04-15T23:05:25.300Z,82.85
2018-04-15T23:07:53.558Z,82.51
2018-04-15T23:10:21.563Z,82.30
2018-04-15T23:12:49.609Z,82.71
2018-04-15T23:15:17.650Z,83.98
2018-04-15T23:17:45.693Z,84.47
2018-04-15T23:20:13.717Z,83.38
2018-04-15T23:22:41.742Z,82.73
2018-04-15T23:25:09.760Z,82.38
2018-04-15T23:27:37.772Z,82.79
2018-04-15T23:30:09.747Z,82.92
2018-04-15T23:32:37.758Z,82.27
2018-04-15T23:35:06.093Z,82.31
2018-04-15T23:37:34.099Z,82.53
2018-04-15T23:40:08.507Z,82.63
2018-04-15T23:42:36.924Z,83.46
2018-04-15T23:45:06.722Z,84.14
2018-04-15T23:47:34.732Z,83.39
2018-04-15T23:50:05.874Z,83.35
2018-04-15T23:52:38.130Z,83.29
2018-04-15T23:55:06.470Z,83.16
2018-04-15T23:57:34.443Z,83.81
